Time;durP1;ratioP1;P1;durP2;ratioP2;P2;SDS_P1;SDS_P2;PMS_P1;PMS_P2;Temp;Humidity;BMP_temperature;BMP_pressure;BME280_temperature;BME280_humidity;BME280_pressure;Samples;Min_cycle;Max_cycle;Signal;HPM_P1;HPM_P2
2022/05/05 00:01:41;;;;;;;4.00;1.65;;;20.10;47.80;;;;;;5083702;28;20044;-75
2022/05/05 00:04:07;;;;;;;2.85;1.55;;;20.10;47.80;;;;;;5084440;28;20121;-74
2022/05/05 00:06:33;;;;;;;4.30;1.67;;;20.10;47.90;;;;;;5083677;28;20124;-72
2022/05/05 00:08:59;;;;;;;3.30;1.80;;;20.10;47.80;;;;;;5084586;28;20096;-70
2022/05/05 00:14:24;;;;;;;2.70;1.67;;;20.10;47.80;;;;;;5083338;28;20097;-71
2022/05/05 00:16:58;;;;;;;3.35;1.50;;;20.00;47.80;;;;;;5084372;28;20032;-73
2022/05/05 00:19:25;;;;;;;4.70;1.90;;;20.10;47.80;;;;;;5089030;28;20481;-71
2022/05/05 00:21:51;;;;;;;2.90;1.60;;;20.10;47.80;;;;;;5091081;28;20081;-74
2022/05/05 00:24:17;;;;;;;3.08;1.63;;;20.00;47.70;;;;;;5087908;28;20056;-70
2022/05/05 00:26:43;;;;;;;3.13;1.52;;;20.00;47.70;;;;;;5086403;28;20109;-73
2022/05/05 00:29:08;;;;;;;6.28;2.00;;;20.00;47.70;;;;;;5085728;28;20043;-74
2022/05/05 00:31:34;;;;;;;3.90;2.00;;;20.00;47.70;;;;;;5084171;28;20040;-72
2022/05/05 00:34:00;;;;;;;2.58;1.67;;;20.00;47.70;;;;;;5089752;28;20127;-72
2022/05/05 00:36:25;;;;;;;2.83;1.67;;;20.00;47.70;;;;;;5083774;28;20806;-73
2022/05/05 00:38:51;;;;;;;3.10;1.55;;;20.00;47.70;;;;;;5086867;28;20135;-77
2022/05/05 00:41:16;;;;;;;2.90;1.60;;;20.00;47.80;;;;;;5086106;28;20132;-70
2022/05/05 00:43:42;;;;;;;2.67;1.88;;;20.00;47.80;;;;;;5085562;28;20119;-78
2022/05/05 00:46:08;;;;;;;2.90;1.75;;;20.00;47.80;;;;;;5081950;28;20134;-70
2022/05/05 00:48:33;;;;;;;3.53;1.85;;;20.00;47.80;;;;;;5084494;28;20039;-71
2022/05/05 00:50:59;;;;;;;2.30;1.58;;;20.00;47.90;;;;;;5068758;28;20040;-69
2022/05/05 00:53:25;;;;;;;2.42;1.55;;;20.00;47.90;;;;;;5085879;28;20483;-71
2022/05/05 00:55:55;;;;;;;2.97;1.52;;;20.00;48.70;;;;;;5087125;28;20105;-70
2022/05/05 00:58:23;;;;;;;2.15;1.55;;;20.00;47.90;;;;;;5083933;28;20048;-70
2022/05/05 01:00:49;;;;;;;3.90;1.73;;;20.00;47.90;;;;;;5086085;28;20089;-71
2022/05/05 01:03:16;;;;;;;3.08;1.60;;;19.90;47.90;;;;;;5087122;28;20040;-71
2022/05/05 01:05:42;;;;;;;2.90;1.77;;;19.90;47.90;;;;;;5082071;28;20066;-73
2022/05/05 01:08:09;;;;;;;2.28;1.70;;;19.90;47.90;;;;;;5087597;28;20093;-71
2022/05/05 01:10:34;;;;;;;2.63;1.65;;;19.90;47.90;;;;;;5085772;28;20048;-72
2022/05/05 01:13:03;;;;;;;2.25;1.77;;;19.90;47.90;;;;;;5110630;27;20044;-68
2022/05/05 01:15:29;;;;;;;2.53;1.60;;;19.90;48.70;;;;;;5084095;28;20056;-68
2022/05/05 01:17:55;;;;;;;2.92;1.77;;;19.90;48.00;;;;;;5085554;28;20134;-71
2022/05/05 01:20:22;;;;;;;2.65;1.70;;;19.90;48.00;;;;;;5085142;28;20115;-74
2022/05/05 01:22:49;;;;;;;2.05;1.67;;;19.90;48.00;;;;;;5084047;28;20055;-74
2022/05/05 01:28:11;;;;;;;2.60;1.40;;;19.90;48.10;;;;;;5082895;28;20056;-69
2022/05/05 01:30:48;;;;;;;2.35;1.60;;;19.90;48.10;;;;;;5085460;28;20162;-70
2022/05/05 01:33:14;;;;;;;1.85;1.50;;;19.90;48.10;;;;;;5096635;28;20048;-74
2022/05/05 01:35:41;;;;;;;3.33;1.60;;;19.90;48.10;;;;;;5099284;28;20092;-74
2022/05/05 01:38:15;;;;;;;3.58;1.70;;;19.80;48.00;;;;;;5093145;28;20036;-76
2022/05/05 01:40:43;;;;;;;2.75;1.60;;;19.90;48.00;;;;;;5095326;28;20043;-77
2022/05/05 01:43:09;;;;;;;2.55;1.40;;;19.80;48.00;;;;;;5096782;28;20043;-75
2022/05/05 01:45:35;;;;;;;1.83;1.50;;;19.90;48.00;;;;;;5096836;28;20075;-74
2022/05/05 01:48:02;;;;;;;2.55;1.58;;;19.80;48.00;;;;;;5095804;28;20027;-72
2022/05/05 01:50:31;;;;;;;4.38;1.88;;;19.80;48.80;;;;;;5096234;28;20040;-71
2022/05/05 01:52:58;;;;;;;2.42;1.70;;;19.80;48.00;;;;;;5098192;28;20081;-70
2022/05/05 01:55:23;;;;;;;2.03;1.52;;;19.80;48.00;;;;;;5094808;28;20082;-70
2022/05/05 01:57:49;;;;;;;2.38;1.60;;;19.80;48.00;;;;;;5095405;28;21752;-72
2022/05/05 02:00:16;;;;;;;2.63;1.52;;;19.80;48.00;;;;;;5094320;28;20039;-72
2022/05/05 02:02:43;;;;;;;2.80;1.60;;;19.80;48.00;;;;;;5091319;28;20043;-70
2022/05/05 02:05:09;;;;;;;3.30;1.40;;;19.80;48.00;;;;;;5098182;28;20407;-72
2022/05/05 02:07:35;;;;;;;2.13;1.60;;;19.80;48.00;;;;;;5097906;28;20036;-71
2022/05/05 02:10:02;;;;;;;2.17;1.48;;;19.80;48.00;;;;;;5126321;27;20043;-70
2022/05/05 02:12:29;;;;;;;5.30;1.80;;;19.80;48.00;;;;;;5096899;28;20036;-71
2022/05/05 02:14:55;;;;;;;4.53;1.63;;;19.80;48.00;;;;;;5095080;28;20445;-71
2022/05/05 02:17:21;;;;;;;2.83;1.70;;;19.80;48.00;;;;;;5096710;28;20036;-69
2022/05/05 02:19:47;;;;;;;3.90;1.75;;;19.80;48.00;;;;;;5125345;27;20043;-71
2022/05/05 02:22:12;;;;;;;6.05;1.52;;;19.70;47.90;;;;;;5092959;28;20036;-70
2022/05/05 02:24:38;;;;;;;3.53;1.70;;;19.80;48.00;;;;;;5096050;28;20078;-69
2022/05/05 02:27:05;;;;;;;2.67;1.80;;;19.80;48.00;;;;;;5123292;27;20032;-71
2022/05/05 02:29:30;;;;;;;3.22;1.70;;;19.70;47.90;;;;;;5086590;28;20410;-70
2022/05/05 02:31:56;;;;;;;1.63;1.33;;;19.70;47.90;;;;;;5127481;27;20044;-70
2022/05/05 02:34:21;;;;;;;2.30;1.50;;;19.80;48.00;;;;;;5096836;28;20044;-70
2022/05/05 02:39:31;;;;;;;3.75;1.65;;;19.70;47.90;;;;;;5093994;28;20048;-70
2022/05/05 02:41:57;;;;;;;2.88;1.60;;;19.70;47.90;;;;;;5128225;27;20036;-70
2022/05/05 02:44:22;;;;;;;2.67;1.70;;;19.70;47.90;;;;;;5094328;28;20065;-70
2022/05/05 02:46:48;;;;;;;3.92;1.70;;;19.70;47.90;;;;;;5094600;28;20040;-71
2022/05/05 02:49:14;;;;;;;2.50;1.73;;;19.70;47.90;;;;;;5089605;28;20036;-71
2022/05/05 02:51:40;;;;;;;2.65;1.58;;;19.70;47.90;;;;;;5095993;28;20507;-70
2022/05/05 02:56:50;;;;;;;3.17;1.73;;;19.70;47.90;;;;;;5093445;28;20039;-70
2022/05/05 02:59:15;;;;;;;2.83;1.90;;;19.70;47.90;;;;;;5089260;28;20507;-71
2022/05/05 03:01:41;;;;;;;1.92;1.52;;;19.70;47.90;;;;;;5095827;28;20523;-71
2022/05/05 03:04:06;;;;;;;2.42;1.52;;;19.70;47.90;;;;;;5096574;28;20125;-70
2022/05/05 03:06:32;;;;;;;3.13;1.70;;;19.70;47.90;;;;;;5074844;28;20131;-70
2022/05/05 03:08:58;;;;;;;4.40;1.63;;;19.70;47.90;;;;;;5095119;28;20035;-70
2022/05/05 03:11:23;;;;;;;4.18;1.90;;;19.70;47.90;;;;;;5092699;28;20054;-69
2022/05/05 03:13:49;;;;;;;2.28;1.52;;;19.70;47.90;;;;;;5089713;28;20083;-71
2022/05/05 03:16:15;;;;;;;2.72;1.65;;;19.70;47.90;;;;;;5092057;28;20521;-69
2022/05/05 03:18:40;;;;;;;2.47;1.73;;;19.60;47.80;;;;;;5096159;28;20511;-69
2022/05/05 03:21:07;;;;;;;2.05;1.70;;;19.70;47.90;;;;;;5095284;28;20406;-70
2022/05/05 03:23:32;;;;;;;3.15;1.83;;;19.60;47.90;;;;;;5088855;28;20048;-70
2022/05/05 03:25:58;;;;;;;2.28;1.67;;;19.60;47.80;;;;;;5093666;28;20047;-73
2022/05/05 03:28:23;;;;;;;3.25;1.90;;;19.60;47.80;;;;;;5094148;28;20135;-70
2022/05/05 03:30:49;;;;;;;2.67;1.80;;;19.60;47.80;;;;;;5090689;28;20036;-73
2022/05/05 03:33:15;;;;;;;2.38;1.60;;;19.60;47.80;;;;;;5093033;28;20075;-70
2022/05/05 03:35:41;;;;;;;3.17;1.70;;;19.60;47.80;;;;;;5095435;28;20040;-73
2022/05/05 03:38:06;;;;;;;2.33;1.60;;;19.60;47.80;;;;;;5092544;28;20163;-74
2022/05/05 03:40:32;;;;;;;3.40;1.70;;;19.60;47.70;;;;;;5092492;28;20036;-73
2022/05/05 03:42:57;;;;;;;2.15;1.65;;;19.70;47.80;;;;;;5089286;28;20058;-75
2022/05/05 03:45:23;;;;;;;2.92;1.70;;;19.60;47.70;;;;;;5092254;28;20032;-73
2022/05/05 03:47:49;;;;;;;3.70;1.73;;;19.60;47.70;;;;;;5092993;28;20434;-73
2022/05/05 03:50:15;;;;;;;2.05;1.50;;;19.60;47.70;;;;;;5094234;28;21095;-70
2022/05/05 03:52:44;;;;;;;3.78;1.98;;;19.60;47.70;;;;;;5125264;27;20047;-71
2022/05/05 03:55:09;;;;;;;2.42;1.70;;;19.60;47.70;;;;;;5100541;28;20135;-72
2022/05/05 03:57:35;;;;;;;3.67;2.00;;;19.60;47.70;;;;;;5097700;28;20055;-71
2022/05/05 04:00:01;;;;;;;2.75;1.73;;;19.60;47.70;;;;;;5097900;28;20090;-70
2022/05/05 04:02:26;;;;;;;2.30;1.58;;;19.60;47.70;;;;;;5099929;28;20024;-71
2022/05/05 04:04:52;;;;;;;3.05;1.52;;;19.60;47.70;;;;;;5097223;28;20049;-72
2022/05/05 04:07:17;;;;;;;2.17;1.65;;;19.60;47.70;;;;;;5094563;28;20047;-72
2022/05/05 04:09:43;;;;;;;1.77;1.65;;;19.60;47.70;;;;;;5095738;28;20122;-73
2022/05/05 04:12:09;;;;;;;3.15;1.80;;;19.60;47.70;;;;;;5097591;28;20075;-74
2022/05/05 04:14:34;;;;;;;3.42;1.60;;;19.60;47.70;;;;;;5093974;28;20047;-71
2022/05/05 04:17:02;;;;;;;2.75;1.75;;;19.60;47.70;;;;;;5082695;28;20061;-75
2022/05/05 04:19:27;;;;;;;3.42;1.77;;;19.60;47.70;;;;;;5098783;28;20044;-71
2022/05/05 04:21:53;;;;;;;3.22;2.05;;;19.60;47.70;;;;;;5097275;28;20801;-74
2022/05/05 04:24:19;;;;;;;4.55;1.70;;;19.60;47.70;;;;;;5094777;28;20585;-71
2022/05/05 04:26:45;;;;;;;2.78;1.70;;;19.60;47.70;;;;;;5098828;28;20123;-75
2022/05/05 04:29:12;;;;;;;4.93;1.70;;;19.60;48.50;;;;;;5094824;28;20051;-72
2022/05/05 04:31:42;;;;;;;2.85;1.80;;;19.60;47.70;;;;;;5098733;28;20047;-75
2022/05/05 04:34:09;;;;;;;2.95;1.52;;;19.60;47.70;;;;;;5097579;28;20044;-70
2022/05/05 04:36:35;;;;;;;3.63;1.75;;;19.60;47.80;;;;;;5095653;28;20407;-72
2022/05/05 04:39:05;;;;;;;2.38;1.65;;;19.60;47.70;;;;;;5098834;28;20050;-70
2022/05/05 04:41:31;;;;;;;2.17;1.60;;;19.60;47.80;;;;;;5094729;28;20052;-70
2022/05/05 04:43:56;;;;;;;4.75;2.10;;;19.60;47.80;;;;;;5099164;28;20410;-71
2022/05/05 04:46:23;;;;;;;3.28;1.70;;;19.60;47.80;;;;;;5094464;28;20036;-75
2022/05/05 04:48:49;;;;;;;1.52;1.42;;;19.60;47.90;;;;;;5097342;28;20751;-71
2022/05/05 04:51:18;;;;;;;2.97;1.60;;;19.60;47.80;;;;;;5093408;28;20136;-70
2022/05/05 04:53:43;;;;;;;2.42;1.60;;;19.60;47.90;;;;;;5103594;28;20128;-72
2022/05/05 04:56:10;;;;;;;1.92;1.50;;;19.60;47.90;;;;;;5097477;28;20047;-72
2022/05/05 04:58:36;;;;;;;2.75;1.60;;;19.60;47.90;;;;;;5096912;28;21127;-71
2022/05/05 05:01:03;;;;;;;2.42;1.60;;;19.60;48.80;;;;;;5097528;28;20036;-70
2022/05/05 05:03:39;;;;;;;1.98;1.58;;;19.60;48.00;;;;;;5092053;28;20032;-71
2022/05/05 05:06:07;;;;;;;2.72;1.95;;;19.60;47.90;;;;;;5094715;28;20040;-72
2022/05/05 05:08:34;;;;;;;3.60;1.60;;;19.60;47.90;;;;;;5096467;28;20047;-71
2022/05/05 05:10:59;;;;;;;2.28;1.58;;;19.60;47.90;;;;;;5094966;28;20047;-73
2022/05/05 05:13:26;;;;;;;2.33;1.60;;;19.60;47.90;;;;;;5096516;28;20036;-70
2022/05/05 05:15:52;;;;;;;2.90;1.60;;;19.60;48.00;;;;;;5095075;28;20039;-70
2022/05/05 05:18:18;;;;;;;1.67;1.50;;;19.60;48.00;;;;;;5091146;28;20056;-70
2022/05/05 05:20:43;;;;;;;2.83;1.60;;;19.60;48.00;;;;;;5095198;28;20376;-71
2022/05/05 05:23:09;;;;;;;2.65;1.45;;;19.60;48.00;;;;;;5098095;28;20118;-72
2022/05/05 05:25:35;;;;;;;3.00;1.50;;;19.60;47.90;;;;;;5092932;28;20115;-69
2022/05/05 05:28:00;;;;;;;3.15;1.58;;;19.60;48.00;;;;;;5094705;28;20039;-70
2022/05/05 05:30:27;;;;;;;2.60;1.70;;;19.60;48.00;;;;;;5091535;28;20035;-71
2022/05/05 05:32:53;;;;;;;2.38;1.60;;;19.60;47.90;;;;;;5095580;28;20124;-70
2022/05/05 05:35:18;;;;;;;2.15;1.55;;;19.60;47.90;;;;;;5096525;28;20048;-71
2022/05/05 05:37:44;;;;;;;2.35;1.60;;;19.60;47.90;;;;;;5107554;27;20398;-70
2022/05/05 05:40:10;;;;;;;2.05;1.60;;;19.60;48.00;;;;;;5094707;28;20086;-69
2022/05/05 05:42:36;;;;;;;2.90;1.52;;;19.60;48.00;;;;;;5095438;28;20035;-70
2022/05/05 05:45:02;;;;;;;2.60;1.73;;;19.60;48.00;;;;;;5094515;28;20043;-70
2022/05/05 05:47:27;;;;;;;1.95;1.50;;;19.60;48.00;;;;;;5096049;28;20079;-70
2022/05/05 05:49:53;;;;;;;2.30;1.55;;;19.60;48.10;;;;;;5099496;28;20064;-70
2022/05/05 05:52:18;;;;;;;1.55;1.40;;;19.60;48.10;;;;;;5093698;28;20040;-69
2022/05/05 05:54:44;;;;;;;2.25;1.55;;;19.60;48.00;;;;;;5124917;27;20043;-71
2022/05/05 05:57:10;;;;;;;3.60;1.45;;;19.60;48.10;;;;;;5077040;28;20047;-71
2022/05/05 05:59:36;;;;;;;3.38;1.83;;;19.60;48.10;;;;;;5095715;28;20169;-71
2022/05/05 06:04:47;;;;;;;2.70;1.50;;;19.60;48.00;;;;;;5126649;27;20075;-72
2022/05/05 06:07:12;;;;;;;2.83;1.48;;;19.60;48.10;;;;;;5095391;28;21282;-73
2022/05/05 06:09:38;;;;;;;1.83;1.48;;;19.60;48.10;;;;;;5092149;28;20071;-71
2022/05/05 06:12:04;;;;;;;6.15;1.60;;;19.70;48.10;;;;;;5092658;28;20056;-70
2022/05/05 06:14:30;;;;;;;2.65;1.70;;;19.60;48.10;;;;;;5092936;28;20085;-70
2022/05/05 06:16:56;;;;;;;1.92;1.40;;;19.60;48.10;;;;;;5081260;28;20040;-69
2022/05/05 06:19:21;;;;;;;9.05;1.83;;;19.60;48.20;;;;;;5088646;28;20645;-71
2022/05/05 06:21:47;;;;;;;3.58;1.70;;;19.60;48.10;;;;;;5086304;28;20046;-69
2022/05/05 06:24:12;;;;;;;5.57;1.60;;;19.60;48.20;;;;;;5082789;28;20135;-69
2022/05/05 06:26:38;;;;;;;3.67;1.80;;;19.60;48.20;;;;;;5083114;28;20082;-71
2022/05/05 06:29:04;;;;;;;3.70;1.60;;;19.60;48.40;;;;;;5081498;28;20783;-69
2022/05/05 06:31:30;;;;;;;3.28;1.63;;;19.70;48.70;;;;;;5077538;28;20055;-71
2022/05/05 06:33:56;;;;;;;2.20;1.70;;;19.70;48.90;;;;;;5079835;28;20040;-68
2022/05/05 06:36:21;;;;;;;9.65;1.70;;;19.70;49.00;;;;;;5083650;28;20055;-69
2022/05/05 06:38:50;;;;;;;7.10;1.50;;;19.70;49.10;;;;;;5080509;28;20093;-67
2022/05/05 06:41:15;;;;;;;;;;;19.80;49.30;;;;;;5081539;28;20047;-70
2022/05/05 06:43:41;;;;;;;3.28;1.92;;;19.80;49.50;;;;;;5081835;28;20034;-69
2022/05/05 06:46:07;;;;;;;4.55;1.77;;;19.80;49.20;;;;;;5081702;28;20044;-71
2022/05/05 06:48:33;;;;;;;3.20;1.90;;;19.80;49.30;;;;;;5084864;28;20811;-68
2022/05/05 06:50:58;;;;;;;2.70;1.70;;;19.80;49.40;;;;;;5095220;28;20039;-68
2022/05/05 06:53:24;;;;;;;3.92;1.80;;;19.90;49.60;;;;;;5076075;28;20043;-67
2022/05/05 06:55:49;;;;;;;5.45;1.80;;;19.90;49.60;;;;;;5083619;28;20071;-67
2022/05/05 06:58:18;;;;;;;5.18;1.70;;;19.90;49.60;;;;;;5083211;28;20051;-67
2022/05/05 07:03:29;;;;;;;2.95;2.17;;;19.90;49.70;;;;;;5081837;28;20137;-68
2022/05/05 07:05:55;;;;;;;3.22;2.00;;;20.00;49.80;;;;;;5080622;28;20068;-70
2022/05/05 07:08:21;;;;;;;3.50;1.75;;;20.00;49.80;;;;;;5080661;28;20128;-70
2022/05/05 07:10:54;;;;;;;3.88;1.77;;;20.00;49.80;;;;;;5083924;28;20055;-74
2022/05/05 07:13:24;;;;;;;5.07;2.05;;;20.00;49.80;;;;;;5081555;28;20072;-70
2022/05/05 07:15:51;;;;;;;5.75;1.90;;;20.00;49.80;;;;;;5083000;28;20048;-70
2022/05/05 07:18:17;;;;;;;2.80;1.75;;;20.10;49.80;;;;;;5083672;28;21092;-70
2022/05/05 07:20:44;;;;;;;6.07;2.25;;;20.10;49.80;;;;;;5080961;28;20132;-68
2022/05/05 07:23:12;;;;;;;4.13;2.03;;;20.10;49.80;;;;;;5072171;28;20076;-70
2022/05/05 07:25:40;;;;;;;3.22;1.70;;;20.10;49.80;;;;;;5076295;28;20087;-70
2022/05/05 07:28:06;;;;;;;5.68;2.22;;;20.10;49.70;;;;;;5078288;28;20090;-69
2022/05/05 07:30:32;;;;;;;5.45;1.85;;;20.10;49.60;;;;;;5078619;28;20127;-70
2022/05/05 07:32:57;;;;;;;4.47;2.10;;;20.10;49.50;;;;;;5108332;27;20129;-69
2022/05/05 07:35:23;;;;;;;4.85;1.90;;;20.20;49.50;;;;;;5080463;28;20044;-69
2022/05/05 07:37:48;;;;;;;5.85;2.10;;;20.20;49.50;;;;;;5082582;28;20044;-68
2022/05/05 07:40:14;;;;;;;6.22;2.20;;;20.20;49.40;;;;;;5078457;28;20395;-69
2022/05/05 07:42:41;;;;;;;6.82;1.92;;;20.20;49.30;;;;;;5078325;28;20040;-69
2022/05/05 07:45:07;;;;;;;3.45;1.67;;;20.20;50.10;;;;;;5077487;28;20032;-78
2022/05/05 07:47:34;;;;;;;6.60;2.00;;;20.20;49.30;;;;;;5093290;27;20079;-75
2022/05/05 07:50:00;;;;;;;4.10;2.10;;;20.20;49.30;;;;;;5076934;28;20478;-69
2022/05/05 07:52:26;;;;;;;4.07;2.10;;;20.20;49.20;;;;;;5078073;28;20071;-68
2022/05/05 07:54:53;;;;;;;4.90;1.85;;;20.30;49.20;;;;;;5109239;27;20076;-77
2022/05/05 07:57:20;;;;;;;3.35;2.30;;;20.30;49.20;;;;;;5077453;28;20062;-74
2022/05/05 07:59:46;;;;;;;9.90;2.20;;;20.30;49.10;;;;;;5089087;28;20040;-70
2022/05/05 08:02:15;;;;;;;4.43;1.88;;;20.30;49.10;;;;;;5093078;28;20044;-68
2022/05/05 08:04:42;;;;;;;2.70;2.10;;;20.30;49.10;;;;;;5123019;27;20090;-70
2022/05/05 08:07:08;;;;;;;4.45;2.13;;;20.30;49.10;;;;;;5089981;28;20495;-70
2022/05/05 08:09:34;;;;;;;5.40;2.25;;;20.40;49.10;;;;;;5086814;28;20036;-68
2022/05/05 08:12:02;;;;;;;5.60;2.15;;;20.30;49.10;;;;;;5085605;28;20105;-73
2022/05/05 08:14:28;;;;;;;3.33;2.17;;;20.40;49.10;;;;;;5069655;28;20051;-69
2022/05/05 08:16:54;;;;;;;4.63;2.00;;;20.40;49.00;;;;;;5086757;28;20068;-74
2022/05/05 08:19:21;;;;;;;6.63;2.58;;;20.40;48.90;;;;;;5083272;28;20524;-73
2022/05/05 08:21:47;;;;;;;5.57;2.40;;;20.40;48.80;;;;;;5084657;28;20058;-72
2022/05/05 08:29:41;;;;;;;5.25;2.45;;;20.50;48.80;;;;;;5069046;28;20052;-76
2022/05/05 08:32:10;;;;;;;9.40;2.42;;;20.50;48.70;;;;;;5076658;28;20036;-73
2022/05/05 08:34:35;;;;;;;;;;;20.50;48.70;;;;;;5080307;28;20055;-71
2022/05/05 08:37:01;;;;;;;10.00;2.78;;;20.50;48.20;;;;;;5086926;28;20294;-75
2022/05/05 08:39:32;;;;;;;6.72;2.40;;;20.60;48.70;;;;;;5083577;28;20035;-70
2022/05/05 08:42:01;;;;;;;7.68;2.30;;;20.60;48.60;;;;;;5083157;28;20040;-71
2022/05/05 08:44:26;;;;;;;6.75;2.80;;;20.60;48.70;;;;;;5065783;28;20051;-71
2022/05/05 08:46:56;;;;;;;9.05;3.03;;;20.60;48.70;;;;;;5114444;27;20039;-72
2022/05/05 08:49:25;;;;;;;4.90;2.70;;;20.70;48.80;;;;;;5080002;28;20048;-70
2022/05/05 08:51:54;;;;;;;8.88;2.45;;;20.70;48.70;;;;;;5083353;28;20056;-72
2022/05/05 08:54:25;;;;;;;3.42;2.08;;;20.70;48.70;;;;;;5082360;28;20040;-73
2022/05/05 08:56:54;;;;;;;11.77;2.75;;;20.70;48.60;;;;;;5080664;28;20091;-73
2022/05/05 08:59:24;;;;;;;4.53;2.67;;;20.80;48.60;;;;;;5060533;28;20059;-76
2022/05/05 09:01:52;;;;;;;11.63;3.03;;;20.80;48.60;;;;;;5083188;28;20044;-73
2022/05/05 09:04:19;;;;;;;8.02;2.35;;;20.80;48.60;;;;;;5080727;28;20916;-75
2022/05/05 09:06:53;;;;;;;4.32;2.50;;;20.80;48.60;;;;;;5079580;28;20028;-70
2022/05/05 09:09:25;;;;;;;8.10;2.50;;;20.90;48.60;;;;;;5075331;28;20353;-72
2022/05/05 09:12:32;;;;;;;4.32;2.55;;;20.90;48.60;;;;;;5080731;28;20104;-72
2022/05/05 09:14:58;;;;;;;6.80;2.55;;;20.90;48.60;;;;;;5050488;28;20107;-75
2022/05/05 09:17:26;;;;;;;5.57;2.50;;;20.90;48.60;;;;;;5074033;28;20040;-74
2022/05/05 09:19:54;;;;;;;8.50;2.85;;;20.90;48.60;;;;;;5072537;28;20086;-73
2022/05/05 09:22:21;;;;;;;5.80;2.75;;;21.00;48.70;;;;;;5079742;28;20036;-77
2022/05/05 09:24:51;;;;;;;6.05;2.40;;;21.00;48.70;;;;;;5083669;28;20126;-73
2022/05/05 09:27:36;;;;;;;7.38;2.33;;;21.00;48.70;;;;;;5084363;28;20043;-75
2022/05/05 09:30:14;;;;;;;6.68;2.40;;;21.10;48.70;;;;;;5083572;28;20113;-74
2022/05/05 09:32:43;;;;;;;7.28;2.58;;;21.10;48.80;;;;;;5088418;28;20051;-74
2022/05/05 09:35:09;;;;;;;;;;;21.10;48.80;;;;;;5080796;28;20068;-74
2022/05/05 09:37:37;;;;;;;7.72;2.85;;;21.10;48.80;;;;;;5111333;27;19920;-74
2022/05/05 09:40:06;;;;;;;5.43;2.60;;;21.20;48.80;;;;;;5076921;28;20060;-73
2022/05/05 09:42:37;;;;;;;8.35;2.63;;;21.20;48.80;;;;;;5086081;28;20122;-71
2022/05/05 09:45:21;;;;;;;4.38;2.38;;;21.20;48.80;;;;;;5080798;28;20079;-73
2022/05/05 09:47:58;;;;;;;3.53;2.35;;;21.20;48.60;;;;;;5088629;28;20084;-70
2022/05/05 09:50:27;;;;;;;4.63;2.70;;;21.30;48.60;;;;;;5078942;28;20052;-73
2022/05/05 09:58:26;;;;;;;4.85;2.65;;;21.30;48.40;;;;;;5082021;28;20511;-74
2022/05/05 10:01:05;;;;;;;4.93;2.55;;;21.40;48.40;;;;;;5092567;28;20482;-72
2022/05/05 10:06:27;;;;;;;5.20;2.30;;;21.40;48.20;;;;;;5080199;28;20059;-72
2022/05/05 10:08:54;;;;;;;7.25;2.70;;;21.50;48.30;;;;;;5083312;28;20079;-75
2022/05/05 10:11:22;;;;;;;4.82;2.40;;;21.50;48.20;;;;;;5080168;28;20051;-75
2022/05/05 10:13:49;;;;;;;6.43;2.55;;;21.50;48.20;;;;;;5077811;28;20722;-75
2022/05/05 10:16:15;;;;;;;6.50;2.60;;;21.50;48.20;;;;;;5086043;28;20174;-72
2022/05/05 10:18:42;;;;;;;4.97;2.50;;;21.60;48.10;;;;;;5081722;28;20119;-75
2022/05/05 10:21:14;;;;;;;5.53;2.35;;;21.60;48.20;;;;;;5081525;28;20040;-72
2022/05/05 10:24:10;;;;;;;8.45;2.53;;;21.60;48.20;;;;;;5080886;28;20043;-72
2022/05/05 10:26:37;;;;;;;8.75;2.47;;;21.70;47.70;;;;;;5110454;27;20102;-76
2022/05/05 10:29:30;;;;;;;5.45;2.22;;;21.70;47.60;;;;;;5079148;28;20055;-74
2022/05/05 10:32:05;;;;;;;4.35;2.70;;;21.70;47.50;;;;;;5110770;27;20060;-76
2022/05/05 10:34:32;;;;;;;4.75;2.60;;;21.70;47.50;;;;;;5082538;28;20088;-77
2022/05/05 10:37:03;;;;;;;4.20;2.47;;;21.80;47.50;;;;;;5088304;28;20486;-73
2022/05/05 10:39:42;;;;;;;4.15;2.20;;;21.80;47.40;;;;;;5107562;27;20048;-72
2022/05/05 10:42:14;;;;;;;4.70;2.30;;;21.80;47.30;;;;;;5085609;28;20047;-76
2022/05/05 10:45:03;;;;;;;4.13;2.70;;;21.90;47.40;;;;;;5059444;28;20052;-77
2022/05/05 10:47:52;;;;;;;5.43;2.58;;;21.90;47.20;;;;;;5072786;28;20039;-76
2022/05/05 10:50:31;;;;;;;5.68;2.65;;;21.90;47.00;;;;;;5076224;28;20695;-73
2022/05/05 10:52:58;;;;;;;5.60;2.42;;;21.90;47.00;;;;;;5082678;28;20051;-71
2022/05/05 10:55:39;;;;;;;15.60;2.80;;;22.00;46.90;;;;;;5077786;28;20518;-76
2022/05/05 10:58:05;;;;;;;9.30;2.80;;;22.00;46.90;;;;;;5079043;28;20048;-75
2022/05/05 11:00:44;;;;;;;4.35;2.58;;;22.00;46.80;;;;;;5080707;28;20062;-77
2022/05/05 11:03:10;;;;;;;6.90;2.55;;;22.00;46.70;;;;;;5102030;27;20170;-75
2022/05/05 11:05:39;;;;;;;6.85;2.58;;;22.00;46.70;;;;;;5080637;28;20051;-74
2022/05/05 11:08:15;;;;;;;3.92;2.60;;;22.10;46.80;;;;;;5076583;28;20036;-73
2022/05/05 11:11:40;;;;;;;5.65;2.55;;;22.10;46.80;;;;;;5063418;28;20428;-76
2022/05/05 11:13:47;;;;;;;5.00;2.25;;;22.10;46.70;;;;;;5077795;28;20557;-75
2022/05/05 11:22:19;;;;;;;6.18;2.50;;;22.20;46.60;;;;;;5078784;28;20048;-75
2022/05/05 11:24:49;;;;;;;4.28;2.38;;;22.10;46.60;;;;;;5078973;28;20127;-70
2022/05/05 11:27:23;;;;;;;5.68;2.85;;;22.20;46.60;;;;;;5079725;28;20566;-76
2022/05/05 11:29:50;;;;;;;3.40;2.40;;;22.20;46.50;;;;;;5071878;28;20048;-71
2022/05/05 11:32:17;;;;;;;4.65;2.80;;;22.20;46.70;;;;;;5073226;28;20048;-69
2022/05/05 11:34:45;;;;;;;4.78;2.42;;;22.20;46.90;;;;;;5072031;28;20496;-70
2022/05/05 11:37:11;;;;;;;6.10;2.60;;;22.30;47.10;;;;;;5090225;28;20787;-72
2022/05/05 11:39:37;;;;;;;4.78;2.40;;;22.30;47.10;;;;;;5075420;28;20157;-72
2022/05/05 11:42:04;;;;;;;4.03;2.65;;;22.30;47.10;;;;;;5068289;28;20051;-70
2022/05/05 11:44:32;;;;;;;3.92;2.40;;;22.30;47.20;;;;;;5074453;28;20055;-69
2022/05/05 11:47:15;;;;;;;6.20;2.87;;;22.40;47.40;;;;;;5074602;28;21249;-70
2022/05/05 11:49:46;;;;;;;6.15;2.97;;;22.40;47.10;;;;;;5077076;28;20515;-70
2022/05/05 11:52:18;;;;;;;5.63;2.80;;;22.40;47.10;;;;;;5072852;28;20056;-70
2022/05/05 11:54:51;;;;;;;3.45;2.80;;;22.50;47.00;;;;;;5067578;28;20044;-70
2022/05/05 11:57:39;;;;;;;6.00;2.75;;;22.50;46.90;;;;;;5079103;28;21579;-71
2022/05/05 12:02:52;;;;;;;4.47;2.60;;;22.50;46.90;;;;;;5074333;28;20536;-70
2022/05/05 12:05:20;;;;;;;5.00;2.88;;;22.50;46.90;;;;;;5065068;28;20048;-70
2022/05/05 12:07:46;;;;;;;6.20;2.80;;;22.60;46.80;;;;;;5065566;28;20048;-70
2022/05/05 12:10:16;;;;;;;9.90;2.85;;;22.60;46.80;;;;;;5049303;28;20043;-70
2022/05/05 12:12:47;;;;;;;4.30;2.80;;;22.60;46.70;;;;;;5073280;28;20173;-69
2022/05/05 12:15:16;;;;;;;5.10;2.58;;;22.60;46.70;;;;;;5086718;28;20507;-73
2022/05/05 12:17:47;;;;;;;4.80;2.50;;;22.70;46.60;;;;;;5081592;28;20068;-77
2022/05/05 12:20:15;;;;;;;7.78;2.97;;;22.70;46.50;;;;;;5075846;28;20073;-76
2022/05/05 12:22:42;;;;;;;5.57;3.17;;;22.70;46.40;;;;;;5084326;28;20055;-78
2022/05/05 12:25:14;;;;;;;5.97;2.70;;;22.70;46.30;;;;;;5065906;28;20047;-76
2022/05/05 12:27:41;;;;;;;4.45;2.63;;;22.80;46.20;;;;;;5071212;28;20058;-72
2022/05/05 12:30:08;;;;;;;5.00;2.55;;;22.80;46.20;;;;;;5104011;27;20028;-77
2022/05/05 12:32:34;;;;;;;7.45;2.97;;;22.80;46.10;;;;;;5084319;28;20117;-73
2022/05/05 12:35:10;;;;;;;4.90;2.45;;;22.80;46.00;;;;;;5085034;28;20048;-72
2022/05/05 12:37:39;;;;;;;4.00;2.55;;;22.90;46.00;;;;;;5084300;28;20055;-77
2022/05/05 12:40:06;;;;;;;4.03;2.67;;;22.90;45.90;;;;;;5082074;28;20051;-71
2022/05/05 12:42:45;;;;;;;7.03;3.17;;;22.90;45.80;;;;;;5084949;28;20496;-77
2022/05/05 12:45:15;;;;;;;3.90;2.60;;;23.00;45.70;;;;;;5082558;28;20046;-77
2022/05/05 12:47:43;;;;;;;5.40;2.70;;;23.00;45.60;;;;;;5077579;28;20055;-70
2022/05/05 12:50:35;;;;;;;4.53;2.58;;;23.00;45.70;;;;;;5085209;28;20650;-75
2022/05/05 13:01:30;;;;;;;4.07;2.80;;;22.90;45.90;;;;;;5080476;28;20040;-78
2022/05/05 13:04:05;;;;;;;7.97;3.20;;;22.90;45.90;;;;;;5080141;28;20514;-74
2022/05/05 13:06:32;;;;;;;4.10;2.88;;;22.90;46.00;;;;;;5084784;28;20103;-74
2022/05/05 13:08:58;;;;;;;3.22;2.72;;;22.80;46.00;;;;;;5082372;28;20052;-76
2022/05/05 13:11:24;;;;;;;4.50;2.95;;;22.80;46.10;;;;;;5046276;28;20032;-75
2022/05/05 13:13:51;;;;;;;4.78;2.67;;;22.80;46.10;;;;;;5067452;28;20054;-75
2022/05/05 13:16:17;;;;;;;5.68;2.83;;;22.80;46.20;;;;;;5081089;28;20048;-75
2022/05/05 13:18:43;;;;;;;6.60;2.90;;;22.70;46.20;;;;;;5090529;28;20400;-74
2022/05/05 13:21:09;;;;;;;4.07;2.92;;;22.70;46.30;;;;;;5077164;28;20128;-75
2022/05/05 13:23:35;;;;;;;5.90;2.88;;;22.70;46.30;;;;;;5086078;28;20487;-74
2022/05/05 13:26:03;;;;;;;6.32;3.10;;;22.70;46.30;;;;;;5082882;28;20105;-71
2022/05/05 13:28:29;;;;;;;5.38;3.20;;;22.70;46.30;;;;;;5085017;28;20044;-77
2022/05/05 13:30:55;;;;;;;6.07;2.90;;;22.60;46.30;;;;;;5080429;28;20147;-74
2022/05/05 13:33:20;;;;;;;7.25;3.00;;;22.60;46.40;;;;;;5084806;28;20052;-70
2022/05/05 13:35:46;;;;;;;4.03;3.00;;;22.60;46.40;;;;;;5087674;28;20812;-72
2022/05/05 13:38:12;;;;;;;3.95;2.72;;;22.60;46.50;;;;;;5080406;28;20649;-70
2022/05/05 13:40:37;;;;;;;5.05;3.08;;;22.60;46.50;;;;;;5109746;27;20753;-70